createdAt,value
2023-03-01T00:00:29.463Z,11.25
2023-03-01T00:08:04.859Z,10.52
2023-03-01T00:15:41.474Z,11.18
2023-03-01T00:23:16.954Z,14.30
2023-03-01T00:30:51.482Z,14.57
2023-03-01T00:38:26.946Z,15.65
2023-03-01T00:46:03.170Z,10.75
2023-03-01T00:53:39.290Z,12.90
2023-03-01T01:01:19.238Z,7.95
2023-03-01T01:08:56.677Z,11.73
2023-03-01T01:16:31.648Z,11.35
2023-03-01T01:24:08.039Z,10.75
2023-03-01T01:31:43.956Z,7.90
2023-03-01T01:39:19.423Z,16.13
2023-03-01T01:46:56.765Z,10.90
2023-03-01T01:54:39.014Z,10.73
2023-03-01T02:02:14.126Z,12.82
2023-03-01T02:09:51.578Z,10.10
2023-03-01T02:25:49.285Z,13.82
2023-03-01T02:33:24.620Z,10.88
2023-03-01T02:40:59.658Z,13.85
2023-03-01T02:48:44.499Z,11.75
2023-03-01T02:56:18.842Z,13.63
2023-03-01T03:03:54.144Z,15.40
2023-03-01T03:11:28.366Z,12.75
2023-03-01T03:19:06.202Z,9.07
2023-03-01T03:26:40.225Z,11.13
2023-03-01T03:34:19.290Z,11.23
2023-03-01T03:41:53.257Z,12.48
2023-03-01T03:49:28.513Z,13.25
2023-03-01T03:57:02.181Z,13.13
2023-03-01T04:04:37.489Z,15.00
2023-03-01T04:12:11.373Z,11.00
2023-03-01T04:19:49.809Z,11.75
2023-03-01T04:27:23.745Z,13.18
2023-03-01T04:34:59.125Z,10.40
2023-03-01T04:42:34.038Z,15.50
2023-03-01T04:50:11.559Z,11.88
2023-03-01T04:57:45.959Z,8.82
2023-03-01T05:05:22.599Z,10.75
2023-03-01T05:12:58.586Z,12.63
2023-03-01T05:20:37.325Z,13.57
2023-03-01T05:28:13.930Z,12.52
2023-03-01T05:35:49.554Z,13.32
2023-03-01T05:43:24.009Z,12.70
2023-03-01T05:58:53.826Z,14.50
2023-03-01T06:06:29.463Z,13.23
2023-03-01T06:14:03.736Z,12.85
2023-03-01T06:21:39.084Z,10.48
2023-03-01T06:29:12.986Z,12.57
2023-03-01T06:36:48.759Z,13.95
2023-03-01T06:44:22.848Z,12.05
2023-03-01T06:51:58.850Z,10.57
2023-03-01T06:59:32.669Z,16.30
2023-03-01T07:07:07.866Z,14.65
2023-03-01T07:14:41.853Z,16.63
2023-03-01T07:22:17.546Z,18.90
2023-03-01T07:29:51.354Z,15.35
2023-03-01T07:45:00.268Z,21.77
2023-03-01T08:00:12.416Z,24.30
2023-03-01T08:07:47.607Z,22.02
2023-03-01T08:23:14.458Z,23.20
2023-03-01T08:30:48.715Z,20.13
2023-03-01T08:38:24.024Z,16.00
2023-03-01T08:45:58.498Z,13.82
2023-03-01T08:53:33.841Z,13.13
2023-03-01T09:01:10.247Z,11.30
2023-03-01T09:08:47.542Z,10.30
2023-03-01T09:16:23.081Z,10.38
2023-03-01T09:31:51.225Z,9.10
2023-03-01T09:39:27.686Z,6.88
2023-03-01T09:47:02.462Z,9.30
2023-03-01T09:54:37.885Z,6.75
2023-03-01T10:02:26.029Z,8.95
2023-03-01T10:10:05.000Z,5.57
2023-03-01T10:17:44.121Z,5.50
2023-03-01T10:25:29.491Z,8.35
2023-03-01T10:33:04.093Z,6.85
2023-03-01T10:48:28.758Z,6.70
2023-03-01T10:56:07.574Z,6.85
2023-03-01T11:03:41.490Z,7.25
2023-03-01T11:11:34.047Z,5.20
2023-03-01T11:19:20.658Z,9.88
2023-03-01T11:26:57.443Z,8.10
2023-03-01T11:34:50.539Z,6.35
2023-03-01T11:42:35.153Z,7.05
2023-03-01T11:58:35.446Z,5.35
2023-03-01T12:06:25.197Z,4.00
2023-03-01T12:14:23.186Z,6.28
2023-03-01T12:22:11.821Z,8.57
2023-03-01T12:29:56.680Z,6.70
2023-03-01T12:37:43.098Z,7.50
2023-03-01T12:45:37.133Z,9.98
2023-03-01T13:01:25.086Z,7.47
2023-03-01T13:09:05.124Z,6.60
2023-03-01T13:16:46.021Z,5.53
2023-03-01T13:24:27.809Z,6.47
2023-03-01T13:32:05.383Z,5.20
2023-03-01T13:39:42.606Z,6.95
2023-03-01T13:47:20.017Z,5.32
2023-03-01T13:54:57.025Z,4.88
2023-03-01T14:02:32.598Z,8.32
2023-03-01T14:18:10.922Z,4.82
2023-03-01T14:25:50.508Z,4.28
2023-03-01T14:33:28.623Z,4.97
2023-03-01T14:41:07.832Z,4.80
2023-03-01T14:48:43.473Z,5.15
2023-03-01T14:56:18.790Z,6.97
2023-03-01T15:03:56.490Z,4.82
2023-03-01T15:11:32.282Z,3.97
2023-03-01T15:19:09.363Z,6.05
2023-03-01T15:26:46.726Z,4.03
2023-03-01T15:34:28.348Z,3.42
2023-03-01T15:42:03.380Z,3.88
2023-03-01T15:49:54.332Z,5.40
2023-03-01T15:57:29.540Z,3.17
2023-03-01T16:05:05.181Z,4.63
2023-03-01T16:12:40.234Z,3.67
2023-03-01T16:36:04.150Z,3.83
2023-03-01T16:43:37.953Z,5.03
2023-03-01T16:51:13.566Z,7.18
2023-03-01T16:58:47.847Z,8.10
2023-03-01T17:06:25.891Z,5.23
2023-03-01T17:13:59.886Z,6.57
2023-03-01T17:21:35.343Z,5.03
2023-03-01T17:29:09.717Z,4.78
2023-03-01T17:36:46.958Z,8.35
2023-03-01T17:44:21.051Z,8.15
2023-03-01T17:51:56.518Z,8.03
2023-03-01T17:59:33.353Z,5.20
2023-03-01T18:07:08.476Z,4.70
2023-03-01T18:22:34.972Z,4.65
2023-03-01T18:30:13.815Z,11.75
2023-03-01T18:37:49.795Z,7.70
2023-03-01T18:45:24.107Z,7.22
2023-03-01T18:52:59.692Z,10.77
2023-03-01T19:00:34.842Z,10.68
2023-03-01T19:08:10.182Z,9.02
2023-03-01T19:15:44.307Z,12.80
2023-03-01T19:23:19.633Z,12.88
2023-03-01T19:30:53.589Z,9.70
2023-03-01T19:38:29.436Z,8.30
2023-03-01T19:53:56.442Z,10.27
2023-03-01T20:01:30.667Z,8.68
2023-03-01T20:09:20.257Z,6.90
2023-03-01T20:16:54.599Z,6.68
2023-03-01T20:24:31.954Z,4.70
2023-03-01T20:32:06.386Z,6.28
2023-03-01T20:39:41.731Z,6.32
2023-03-01T20:47:17.090Z,5.32
2023-03-01T21:02:26.088Z,8.45
2023-03-01T21:10:01.592Z,8.05
2023-03-01T21:17:35.740Z,8.68
2023-03-01T21:25:11.764Z,7.97
2023-03-01T21:32:45.666Z,6.75
2023-03-01T21:40:21.384Z,5.45
2023-03-01T21:47:55.193Z,6.25
2023-03-01T21:55:30.797Z,8.52
2023-03-01T22:03:04.655Z,5.15
2023-03-01T22:10:43.726Z,6.28
2023-03-01T22:18:17.977Z,6.70
2023-03-01T22:25:53.280Z,5.07
2023-03-01T22:33:27.118Z,4.85
2023-03-01T22:41:04.775Z,5.68
2023-03-01T22:48:38.824Z,8.13
2023-03-01T23:03:50.794Z,7.10
2023-03-01T23:11:27.270Z,7.07
2023-03-01T23:19:01.302Z,6.43
2023-03-01T23:34:28.978Z,5.25
2023-03-01T23:42:04.221Z,4.78
2023-03-01T23:49:38.297Z,7.80
